Time;durP1;ratioP1;P1;durP2;ratioP2;P2;SDS_P1;SDS_P2;PMS_P1;PMS_P2;Temp;Humidity;BMP_temperature;BMP_pressure;BME280_temperature;BME280_humidity;BME280_pressure;Samples;Min_cycle;Max_cycle;Signal;HPM_P1;HPM_P2
2020/12/25 00:01:39;;;;;;;1.90;0.80;;;15.90;62.10;;;;;;4917352;29;20486;-53
2020/12/25 00:04:04;;;;;;;3.63;1.20;;;15.80;62.10;;;;;;4917120;29;20032;-54
2020/12/25 00:06:34;;;;;;;1.85;0.82;;;16.10;62.30;;;;;;4917346;29;20426;-54
2020/12/25 00:09:01;;;;;;;2.05;0.57;;;15.80;62.20;;;;;;4917230;29;20133;-54
2020/12/25 00:11:36;;;;;;;1.33;0.90;;;15.90;62.30;;;;;;4917549;29;20484;-53
2020/12/25 00:14:02;;;;;;;1.23;0.60;;;15.80;62.30;;;;;;4917470;29;20032;-54
2020/12/25 00:16:28;;;;;;;1.15;0.50;;;15.80;62.30;;;;;;4917074;29;20051;-53
2020/12/25 00:18:54;;;;;;;2.53;0.47;;;15.80;62.30;;;;;;4918102;28;20111;-53
2020/12/25 00:21:20;;;;;;;1.38;0.50;;;15.70;62.30;;;;;;4917214;29;20028;-53
2020/12/25 00:23:46;;;;;;;0.93;0.40;;;15.70;62.30;;;;;;4917051;29;20100;-53
2020/12/25 00:26:23;;;;;;;1.52;0.60;;;15.70;62.40;;;;;;4917134;29;20165;-51
2020/12/25 00:28:49;;;;;;;1.75;0.50;;;15.70;62.40;;;;;;4917251;29;20032;-53
2020/12/25 00:31:30;;;;;;;2.25;0.90;;;15.70;62.40;;;;;;4916847;29;20379;-53
2020/12/25 00:33:58;;;;;;;1.38;0.57;;;15.70;62.50;;;;;;4899894;29;20039;-50
2020/12/25 00:36:25;;;;;;;1.23;0.45;;;15.60;62.50;;;;;;4916677;29;20111;-54
2020/12/25 00:38:50;;;;;;;1.00;0.50;;;15.70;62.50;;;;;;4916924;29;20062;-54
2020/12/25 00:41:16;;;;;;;1.63;0.70;;;15.60;62.50;;;;;;4916611;29;20538;-54
2020/12/25 00:43:42;;;;;;;2.30;0.68;;;15.60;62.50;;;;;;4916657;29;20032;-53
2020/12/25 00:46:11;;;;;;;0.80;0.50;;;15.50;62.50;;;;;;4916769;29;20030;-54
2020/12/25 00:48:37;;;;;;;1.85;0.68;;;15.60;62.50;;;;;;4916633;29;20114;-54
2020/12/25 00:51:03;;;;;;;1.88;0.50;;;15.60;62.60;;;;;;4916583;29;20052;-55
2020/12/25 00:53:29;;;;;;;1.20;0.60;;;15.60;62.60;;;;;;4899512;29;20024;-54
2020/12/25 00:55:54;;;;;;;0.88;0.63;;;15.60;62.60;;;;;;4916578;29;20383;-53
2020/12/25 00:58:20;;;;;;;0.60;0.40;;;15.60;62.60;;;;;;4899617;29;20032;-53
2020/12/25 01:00:46;;;;;;;1.73;0.57;;;15.60;62.70;;;;;;4916152;29;20074;-51
2020/12/25 01:03:11;;;;;;;1.13;0.50;;;15.50;62.60;;;;;;4916268;29;20024;-53
2020/12/25 01:05:37;;;;;;;1.85;0.32;;;15.50;62.60;;;;;;4916347;29;20495;-54
2020/12/25 01:08:02;;;;;;;1.92;0.52;;;15.50;62.60;;;;;;4916255;29;20549;-52
2020/12/25 01:10:28;;;;;;;0.73;0.43;;;15.50;62.70;;;;;;4899156;29;20676;-54
2020/12/25 01:12:53;;;;;;;1.75;0.90;;;15.50;62.70;;;;;;4916263;29;20188;-55
2020/12/25 01:15:19;;;;;;;1.00;0.43;;;15.50;62.70;;;;;;4916192;29;20630;-52
2020/12/25 01:18:05;;;;;;;1.75;0.50;;;15.50;62.80;;;;;;4917569;28;20139;-55
2020/12/25 01:20:32;;;;;;;1.80;0.40;;;15.40;62.70;;;;;;4916369;29;20047;-54
2020/12/25 01:22:58;;;;;;;1.27;0.30;;;15.40;62.70;;;;;;4916145;29;20032;-54
2020/12/25 01:25:23;;;;;;;1.15;0.30;;;15.40;62.70;;;;;;4916115;29;20032;-53
2020/12/25 01:27:49;;;;;;;1.55;0.55;;;15.40;62.80;;;;;;4916435;29;20048;-54
2020/12/25 01:30:14;;;;;;;0.95;0.50;;;15.40;62.80;;;;;;4917584;29;20028;-54
2020/12/25 01:32:40;;;;;;;1.52;0.55;;;15.40;62.80;;;;;;4920021;29;20078;-54
2020/12/25 01:35:05;;;;;;;1.25;0.68;;;15.30;62.70;;;;;;4903038;29;20032;-53
2020/12/25 01:37:31;;;;;;;1.00;0.52;;;15.30;62.70;;;;;;4919911;29;20076;-53
2020/12/25 01:39:57;;;;;;;1.67;0.50;;;15.30;62.80;;;;;;4919845;29;20157;-52
2020/12/25 01:42:22;;;;;;;0.88;0.47;;;15.40;62.80;;;;;;4919697;29;20095;-54
2020/12/25 01:44:48;;;;;;;2.50;0.60;;;15.30;62.80;;;;;;4902826;29;20040;-53
2020/12/25 01:47:16;;;;;;;1.25;0.80;;;15.30;62.90;;;;;;4919728;29;20060;-54
2020/12/25 01:49:43;;;;;;;0.68;0.30;;;15.30;62.90;;;;;;4919773;29;20056;-54
2020/12/25 01:52:09;;;;;;;0.40;0.30;;;15.30;62.90;;;;;;4919727;29;20083;-54
2020/12/25 01:54:35;;;;;;;1.00;0.60;;;15.30;62.90;;;;;;4919508;29;20475;-53
2020/12/25 01:57:01;;;;;;;1.52;0.55;;;15.30;63.60;;;;;;4919541;29;20028;-53
2020/12/25 01:59:26;;;;;;;0.35;0.30;;;15.30;62.90;;;;;;4919519;29;20047;-52
2020/12/25 02:01:53;;;;;;;1.02;0.30;;;15.30;62.90;;;;;;4919407;29;20021;-52
2020/12/25 02:04:18;;;;;;;1.40;0.45;;;15.20;62.90;;;;;;4902575;29;20103;-53
2020/12/25 02:06:44;;;;;;;0.77;0.32;;;15.20;62.90;;;;;;4919425;29;20103;-54
2020/12/25 02:09:09;;;;;;;0.77;0.38;;;15.20;63.00;;;;;;4919248;29;20028;-53
2020/12/25 02:11:36;;;;;;;0.80;0.40;;;15.20;63.00;;;;;;4918956;29;20036;-52
2020/12/25 02:14:02;;;;;;;0.77;0.40;;;15.20;63.00;;;;;;4919239;29;20020;-52
2020/12/25 02:16:28;;;;;;;0.95;0.35;;;15.20;62.90;;;;;;4919129;29;20036;-54
2020/12/25 02:18:53;;;;;;;0.95;0.50;;;15.20;63.00;;;;;;4920735;28;20067;-54
2020/12/25 02:21:19;;;;;;;0.98;0.43;;;15.10;63.00;;;;;;4918791;29;20028;-54
2020/12/25 02:23:44;;;;;;;0.60;0.30;;;15.10;63.00;;;;;;4919054;29;20111;-53
2020/12/25 02:26:11;;;;;;;0.95;0.50;;;15.10;63.00;;;;;;4918999;29;20032;-54
2020/12/25 02:28:36;;;;;;;0.45;0.30;;;15.10;63.00;;;;;;4918915;29;20024;-53
2020/12/25 02:31:03;;;;;;;0.93;0.40;;;15.10;63.10;;;;;;4918560;29;20480;-54
2020/12/25 02:33:28;;;;;;;1.25;0.45;;;15.10;63.10;;;;;;4918918;29;20055;-54
2020/12/25 02:35:54;;;;;;;0.95;0.40;;;15.30;63.30;;;;;;4918834;29;20052;-54
2020/12/25 02:38:19;;;;;;;0.38;0.25;;;15.00;63.10;;;;;;4918763;29;20028;-53
2020/12/25 02:40:45;;;;;;;0.93;0.38;;;15.00;63.20;;;;;;4918104;29;20375;-54
2020/12/25 02:43:11;;;;;;;1.55;0.38;;;15.00;63.10;;;;;;4918758;29;20155;-53
2020/12/25 02:45:36;;;;;;;0.88;0.50;;;15.10;63.20;;;;;;4901766;29;20502;-53
2020/12/25 02:48:02;;;;;;;0.82;0.47;;;15.10;63.20;;;;;;4918671;29;20028;-53
2020/12/25 02:50:28;;;;;;;0.55;0.30;;;15.00;63.20;;;;;;4918227;29;20051;-54
2020/12/25 02:52:53;;;;;;;0.70;0.30;;;15.00;63.20;;;;;;4918638;29;20084;-54
2020/12/25 02:55:19;;;;;;;1.08;0.30;;;15.00;63.20;;;;;;4918603;29;20501;-54
2020/12/25 02:57:44;;;;;;;1.00;0.30;;;15.20;63.40;;;;;;4918537;29;20024;-52
2020/12/25 03:00:10;;;;;;;1.45;0.30;;;15.00;63.30;;;;;;4918226;29;20036;-53
2020/12/25 03:02:35;;;;;;;0.47;0.38;;;15.00;63.30;;;;;;4918597;29;20020;-54
2020/12/25 03:05:01;;;;;;;0.40;0.20;;;15.00;63.40;;;;;;4918403;29;20024;-53
2020/12/25 03:07:27;;;;;;;0.93;0.40;;;14.90;63.40;;;;;;4918857;29;20031;-54
2020/12/25 03:09:52;;;;;;;0.88;0.28;;;15.00;63.40;;;;;;4918269;29;20032;-54
2020/12/25 03:12:18;;;;;;;0.55;0.30;;;14.90;63.30;;;;;;4918190;29;20501;-53
2020/12/25 03:14:44;;;;;;;1.23;0.20;;;15.00;63.40;;;;;;4918113;29;20028;-53
2020/12/25 03:17:09;;;;;;;0.75;0.25;;;14.90;63.30;;;;;;4917994;29;20024;-54
2020/12/25 03:19:35;;;;;;;1.55;0.40;;;14.90;63.40;;;;;;4919605;28;20048;-54
2020/12/25 03:22:00;;;;;;;1.65;0.47;;;14.90;63.40;;;;;;4917915;29;20111;-53
2020/12/25 03:24:26;;;;;;;0.50;0.30;;;14.90;63.40;;;;;;4917964;29;20035;-53
2020/12/25 03:26:52;;;;;;;0.85;0.60;;;14.90;63.40;;;;;;4917935;29;20043;-53
2020/12/25 03:29:17;;;;;;;0.30;0.30;;;14.80;63.40;;;;;;4917764;29;20107;-53
2020/12/25 03:31:46;;;;;;;0.60;0.40;;;14.90;63.40;;;;;;4917707;29;20031;-53
2020/12/25 03:34:12;;;;;;;1.20;0.40;;;14.80;63.40;;;;;;4917795;29;20032;-54
2020/12/25 03:36:38;;;;;;;0.73;0.22;;;14.90;63.50;;;;;;4917730;29;20160;-54
2020/12/25 03:39:05;;;;;;;0.98;0.32;;;14.90;63.50;;;;;;4917840;29;20043;-55
2020/12/25 03:41:31;;;;;;;1.23;0.50;;;14.80;63.40;;;;;;4917614;29;20480;-53
2020/12/25 03:43:56;;;;;;;1.30;0.30;;;14.80;63.50;;;;;;4917570;29;20032;-53
2020/12/25 03:46:22;;;;;;;0.95;0.30;;;14.80;63.50;;;;;;4917615;29;20450;-54
2020/12/25 03:48:48;;;;;;;0.35;0.30;;;14.80;63.50;;;;;;4917491;29;20107;-53
2020/12/25 03:51:13;;;;;;;0.57;0.30;;;14.80;63.50;;;;;;4917326;29;20111;-53
2020/12/25 03:53:39;;;;;;;0.50;0.38;;;14.80;63.50;;;;;;4916692;29;20076;-53
2020/12/25 03:56:05;;;;;;;0.85;0.30;;;14.90;63.60;;;;;;4917406;29;20036;-54
2020/12/25 03:58:32;;;;;;;1.00;0.40;;;14.70;63.40;;;;;;4917326;29;20033;-51
2020/12/25 04:00:57;;;;;;;1.88;0.52;;;14.80;63.50;;;;;;4917080;29;20036;-52
2020/12/25 04:03:23;;;;;;;0.50;0.30;;;14.80;63.50;;;;;;4917303;29;20053;-54
2020/12/25 04:05:49;;;;;;;0.40;0.30;;;14.70;63.50;;;;;;4917283;29;20031;-52
2020/12/25 04:08:14;;;;;;;0.40;0.30;;;14.70;63.50;;;;;;4916782;29;20497;-52
2020/12/25 04:10:40;;;;;;;1.20;0.30;;;14.70;63.60;;;;;;4917230;29;20514;-53
2020/12/25 04:13:06;;;;;;;1.33;0.52;;;14.70;63.60;;;;;;4917212;29;20043;-53
2020/12/25 04:15:32;;;;;;;0.52;0.43;;;14.70;63.60;;;;;;4917020;29;20032;-54
2020/12/25 04:17:58;;;;;;;1.40;0.30;;;14.70;63.60;;;;;;4917265;28;20043;-53
2020/12/25 04:20:23;;;;;;;0.95;0.28;;;14.70;63.70;;;;;;4919027;28;20103;-54
2020/12/25 04:22:49;;;;;;;0.52;0.25;;;14.70;63.70;;;;;;4935911;29;20028;-54
2020/12/25 04:25:14;;;;;;;1.92;0.52;;;14.80;63.80;;;;;;4935858;29;20494;-53
2020/12/25 04:27:40;;;;;;;1.58;0.30;;;14.70;63.70;;;;;;4935660;29;20038;-53
2020/12/25 04:30:06;;;;;;;1.17;0.40;;;14.70;63.70;;;;;;4935809;29;20475;-52
2020/12/25 04:32:31;;;;;;;0.70;0.30;;;14.50;63.60;;;;;;4935919;29;20023;-54
2020/12/25 04:34:57;;;;;;;0.95;0.20;;;14.60;63.60;;;;;;4935568;29;20032;-55
2020/12/25 04:37:23;;;;;;;0.70;0.32;;;14.60;63.60;;;;;;4935360;29;20032;-54
2020/12/25 04:39:49;;;;;;;0.57;0.30;;;14.60;63.60;;;;;;4935774;29;20390;-53
2020/12/25 04:42:15;;;;;;;0.55;0.20;;;14.60;63.60;;;;;;4935578;29;20024;-54
2020/12/25 04:44:41;;;;;;;0.55;0.30;;;14.60;63.60;;;;;;4935877;29;20035;-54
2020/12/25 04:47:08;;;;;;;0.30;0.20;;;14.60;63.60;;;;;;4935488;29;20509;-53
2020/12/25 04:49:35;;;;;;;0.68;0.40;;;14.60;63.70;;;;;;4935543;29;20059;-54
2020/12/25 04:52:00;;;;;;;0.85;0.38;;;14.60;63.70;;;;;;4935399;29;20047;-55
2020/12/25 04:54:26;;;;;;;0.40;0.30;;;14.60;63.70;;;;;;4935406;29;20058;-54
2020/12/25 04:56:51;;;;;;;1.13;0.30;;;14.60;63.70;;;;;;4918406;29;20042;-51
2020/12/25 04:59:17;;;;;;;1.05;0.40;;;14.60;63.70;;;;;;4935316;29;20093;-54
2020/12/25 05:01:42;;;;;;;0.63;0.40;;;14.50;63.70;;;;;;4935024;29;20398;-53
2020/12/25 05:04:19;;;;;;;1.08;0.30;;;14.50;63.70;;;;;;4935096;29;20019;-53
2020/12/25 05:06:47;;;;;;;1.10;0.57;;;14.50;63.70;;;;;;4935309;29;20475;-54
2020/12/25 05:09:24;;;;;;;1.15;0.30;;;14.50;63.80;;;;;;4935399;29;20046;-53
2020/12/25 05:11:52;;;;;;;0.52;0.30;;;14.50;63.70;;;;;;4935302;29;20101;-54
2020/12/25 05:14:18;;;;;;;1.25;0.32;;;14.50;63.80;;;;;;4935190;29;20510;-54
2020/12/25 05:16:45;;;;;;;0.35;0.20;;;14.50;63.80;;;;;;4934994;29;20027;-54
2020/12/25 05:19:14;;;;;;;0.45;0.30;;;14.50;63.80;;;;;;4927664;28;20048;-52
2020/12/25 05:21:40;;;;;;;1.67;0.40;;;14.50;63.80;;;;;;4916125;29;20471;-51
2020/12/25 05:24:09;;;;;;;0.47;0.30;;;14.40;63.70;;;;;;4916412;29;20016;-55
2020/12/25 05:26:36;;;;;;;0.35;0.28;;;14.40;63.70;;;;;;4899002;29;20447;-53
2020/12/25 05:29:03;;;;;;;1.95;0.32;;;14.40;63.70;;;;;;4916013;29;20386;-51
2020/12/25 05:31:28;;;;;;;0.88;0.45;;;14.40;63.80;;;;;;4899088;29;20024;-54
2020/12/25 05:33:58;;;;;;;0.93;0.30;;;14.40;63.80;;;;;;4916148;29;20056;-52
2020/12/25 05:36:28;;;;;;;0.45;0.30;;;14.40;63.80;;;;;;4915812;29;20024;-52
2020/12/25 05:38:55;;;;;;;1.40;0.30;;;14.40;63.80;;;;;;4915972;29;20031;-52
2020/12/25 05:41:23;;;;;;;0.65;0.22;;;14.40;63.80;;;;;;4915965;29;20080;-53
2020/12/25 05:43:51;;;;;;;0.60;0.40;;;14.50;63.90;;;;;;4915998;29;20036;-52
2020/12/25 05:46:17;;;;;;;0.38;0.20;;;14.40;63.90;;;;;;4915925;29;20044;-54
2020/12/25 05:48:51;;;;;;;0.65;0.20;;;14.20;63.80;;;;;;4915988;29;20032;-53
2020/12/25 05:51:16;;;;;;;1.02;0.32;;;14.40;64.00;;;;;;4899070;29;20028;-52
2020/12/25 05:53:44;;;;;;;0.93;0.30;;;14.40;64.00;;;;;;4915842;29;20157;-54
2020/12/25 05:56:12;;;;;;;0.70;0.40;;;14.40;64.10;;;;;;4915815;29;20024;-53
2020/12/25 05:58:43;;;;;;;0.70;0.25;;;14.20;64.00;;;;;;4915848;29;20180;-54
2020/12/25 06:01:09;;;;;;;1.35;0.50;;;14.40;64.20;;;;;;4915833;29;20029;-54
2020/12/25 06:03:37;;;;;;;0.55;0.30;;;14.30;64.30;;;;;;4915725;29;20032;-53
2020/12/25 06:06:11;;;;;;;0.85;0.30;;;14.40;64.30;;;;;;4915834;29;20024;-54
2020/12/25 06:08:46;;;;;;;0.45;0.30;;;14.40;64.40;;;;;;4915819;29;20075;-54
2020/12/25 06:11:16;;;;;;;1.30;0.45;;;14.40;64.40;;;;;;4915513;29;20031;-53
2020/12/25 06:13:42;;;;;;;2.75;0.40;;;14.30;64.40;;;;;;4915748;29;20026;-53
2020/12/25 06:16:19;;;;;;;1.42;0.50;;;14.40;64.60;;;;;;4900352;29;20599;-53
2020/12/25 06:19:16;;;;;;;1.20;0.40;;;14.50;64.70;;;;;;4907454;28;20135;-53
2020/12/25 06:21:56;;;;;;;0.35;0.20;;;14.60;64.60;;;;;;4938101;29;20032;-53
2020/12/25 06:24:31;;;;;;;1.25;0.20;;;14.60;64.40;;;;;;4938031;29;20023;-54
2020/12/25 06:27:01;;;;;;;1.10;0.38;;;14.70;64.40;;;;;;4937911;29;20042;-52
2020/12/25 06:29:28;;;;;;;0.80;0.55;;;14.80;64.20;;;;;;4937971;29;20422;-54
2020/12/25 06:31:56;;;;;;;0.80;0.30;;;15.00;64.30;;;;;;4938186;29;20027;-53
2020/12/25 06:34:21;;;;;;;0.47;0.20;;;14.90;64.10;;;;;;4938026;29;20028;-53
2020/12/25 06:36:48;;;;;;;0.77;0.38;;;14.90;64.10;;;;;;4937849;29;20088;-53
2020/12/25 06:39:21;;;;;;;1.35;0.47;;;14.90;64.00;;;;;;4937216;29;20059;-52
2020/12/25 06:41:47;;;;;;;0.98;0.40;;;14.90;64.00;;;;;;4937834;29;20545;-50
2020/12/25 06:44:15;;;;;;;0.75;0.40;;;14.90;64.10;;;;;;4937751;29;20032;-52
2020/12/25 06:46:49;;;;;;;1.10;0.30;;;14.90;64.10;;;;;;4920694;29;20561;-54
2020/12/25 06:49:16;;;;;;;0.88;0.30;;;14.90;64.00;;;;;;4937269;29;20079;-52
2020/12/25 06:51:43;;;;;;;0.77;0.40;;;14.90;64.10;;;;;;4937534;29;20051;-53
2020/12/25 06:54:19;;;;;;;1.52;0.65;;;14.90;64.00;;;;;;4937504;29;20024;-53
2020/12/25 06:56:46;;;;;;;1.48;0.45;;;14.80;64.10;;;;;;4937845;29;20031;-53
2020/12/25 06:59:19;;;;;;;2.53;0.40;;;14.80;64.00;;;;;;4937096;29;20019;-53
2020/12/25 07:01:46;;;;;;;1.33;0.50;;;14.70;64.00;;;;;;4937394;29;20034;-54
2020/12/25 07:04:32;;;;;;;2.28;0.60;;;14.70;64.00;;;;;;4937349;29;20024;-53
2020/12/25 07:07:06;;;;;;;1.20;0.38;;;14.70;64.00;;;;;;4937519;29;20427;-54
2020/12/25 07:09:35;;;;;;;3.03;0.60;;;14.70;64.00;;;;;;4936950;29;20027;-52
2020/12/25 07:12:05;;;;;;;1.30;0.30;;;14.70;64.00;;;;;;4937222;29;20027;-52
2020/12/25 07:14:30;;;;;;;1.08;0.40;;;14.70;64.00;;;;;;4920624;29;20040;-53
2020/12/25 07:16:56;;;;;;;2.40;0.40;;;14.70;64.00;;;;;;4937043;29;20020;-54
2020/12/25 07:19:21;;;;;;;1.10;0.35;;;14.70;64.00;;;;;;4929767;28;20518;-54
2020/12/25 07:21:47;;;;;;;2.83;0.50;;;14.70;64.10;;;;;;4901056;29;20505;-52
2020/12/25 07:24:14;;;;;;;3.70;0.45;;;14.60;64.10;;;;;;4917980;29;20542;-54
2020/12/25 07:26:39;;;;;;;1.70;0.30;;;14.40;64.00;;;;;;4917285;29;20032;-54
2020/12/25 07:29:13;;;;;;;2.42;0.60;;;14.60;64.20;;;;;;4917282;29;20475;-54
2020/12/25 07:31:45;;;;;;;2.28;0.65;;;14.60;64.10;;;;;;4917786;29;20017;-54
2020/12/25 07:34:10;;;;;;;1.13;0.30;;;14.60;64.20;;;;;;4917850;29;20069;-53
2020/12/25 07:36:36;;;;;;;2.35;0.30;;;14.60;64.40;;;;;;4917781;29;20056;-54
2020/12/25 07:39:03;;;;;;;3.90;0.52;;;14.60;64.50;;;;;;4917310;29;20131;-54
2020/12/25 07:41:29;;;;;;;1.17;0.47;;;14.60;64.60;;;;;;4917492;29;20528;-53
2020/12/25 07:43:56;;;;;;;1.80;0.38;;;14.50;64.80;;;;;;4917745;29;20024;-53
2020/12/25 07:46:23;;;;;;;2.10;0.45;;;14.50;64.70;;;;;;4917465;29;20554;-53
2020/12/25 07:48:53;;;;;;;2.17;0.77;;;14.50;64.50;;;;;;4900047;29;20107;-53
2020/12/25 07:51:19;;;;;;;1.65;0.50;;;14.50;64.50;;;;;;4917131;29;20032;-52
2020/12/25 07:53:49;;;;;;;1.27;0.40;;;14.50;64.40;;;;;;4917484;29;20028;-52
2020/12/25 07:56:21;;;;;;;3.17;0.47;;;14.40;64.30;;;;;;4917628;29;20061;-54
2020/12/25 07:58:51;;;;;;;2.38;0.63;;;14.40;64.90;;;;;;4900879;29;20479;-52
2020/12/25 08:01:20;;;;;;;0.90;0.30;;;14.40;64.20;;;;;;4917326;29;20032;-50
2020/12/25 08:03:47;;;;;;;1.40;0.60;;;14.40;64.20;;;;;;4917271;29;20103;-51
2020/12/25 08:06:17;;;;;;;1.10;0.38;;;14.40;64.10;;;;;;4917200;29;20036;-53
2020/12/25 08:09:07;;;;;;;1.85;0.35;;;14.30;64.00;;;;;;4916973;29;20431;-54
2020/12/25 08:11:35;;;;;;;1.50;0.40;;;14.30;63.90;;;;;;4907874;29;20115;-52
2020/12/25 08:14:10;;;;;;;4.15;0.70;;;14.30;64.20;;;;;;4900271;29;20032;-50
2020/12/25 08:16:41;;;;;;;2.65;0.73;;;14.30;63.80;;;;;;4917034;29;20076;-50
2020/12/25 08:19:06;;;;;;;4.95;0.85;;;14.40;63.60;;;;;;4918693;28;20059;-52
2020/12/25 08:21:33;;;;;;;2.53;0.52;;;14.40;63.30;;;;;;4917326;29;20043;-54
2020/12/25 08:24:01;;;;;;;2.38;0.60;;;14.40;63.10;;;;;;4917320;29;20494;-54
2020/12/25 08:26:31;;;;;;;4.47;0.80;;;14.40;63.00;;;;;;4916836;29;20031;-53
2020/12/25 08:28:58;;;;;;;1.75;0.70;;;14.40;63.20;;;;;;4916889;29;20057;-53
2020/12/25 08:31:23;;;;;;;3.55;0.85;;;14.40;63.50;;;;;;4917131;29;20035;-52
2020/12/25 08:33:56;;;;;;;2.85;0.88;;;14.40;63.40;;;;;;4916878;29;20383;-55
2020/12/25 08:36:23;;;;;;;2.47;0.50;;;14.40;64.00;;;;;;4899710;29;20107;-53
2020/12/25 08:38:49;;;;;;;3.60;0.50;;;14.50;63.80;;;;;;4916348;29;20024;-54
2020/12/25 08:41:15;;;;;;;2.30;0.60;;;14.30;63.60;;;;;;4916755;29;20032;-55
2020/12/25 08:43:40;;;;;;;4.82;0.63;;;14.50;63.70;;;;;;4916709;29;20031;-53
2020/12/25 08:46:06;;;;;;;2.50;0.50;;;14.50;63.70;;;;;;4916705;29;20024;-50
2020/12/25 08:48:34;;;;;;;5.30;0.90;;;14.60;63.40;;;;;;4916915;29;20028;-54
2020/12/25 08:51:10;;;;;;;2.50;0.90;;;14.60;63.30;;;;;;4916686;29;20379;-53
2020/12/25 08:53:37;;;;;;;1.65;0.50;;;14.60;63.20;;;;;;4916646;29;20028;-54
2020/12/25 08:56:17;;;;;;;2.65;0.60;;;14.70;63.10;;;;;;4899583;29;20084;-54
2020/12/25 08:58:59;;;;;;;;;;;14.70;62.80;;;;;;4917034;29;20035;-53
2020/12/25 09:01:25;;;;;;;3.33;0.70;;;14.70;62.50;;;;;;4916513;29;20433;-53
2020/12/25 09:03:51;;;;;;;3.67;0.98;;;14.70;62.30;;;;;;4916448;29;20063;-54
2020/12/25 09:06:23;;;;;;;2.47;0.80;;;14.70;62.40;;;;;;4916417;29;20547;-54
2020/12/25 09:08:49;;;;;;;2.78;0.80;;;14.70;62.50;;;;;;4916416;29;20119;-53
2020/12/25 09:11:20;;;;;;;2.78;0.90;;;14.60;62.40;;;;;;4916303;29;20060;-53
2020/12/25 09:13:46;;;;;;;2.88;0.60;;;14.60;62.40;;;;;;4916210;29;20028;-52
2020/12/25 09:16:12;;;;;;;2.30;0.75;;;14.60;62.50;;;;;;4916153;29;20056;-53
2020/12/25 09:18:39;;;;;;;4.13;0.73;;;14.60;62.60;;;;;;4917705;28;20059;-53
2020/12/25 09:21:07;;;;;;;1.88;0.50;;;14.60;62.70;;;;;;4916279;29;20044;-56
2020/12/25 09:23:33;;;;;;;1.77;0.57;;;14.60;62.60;;;;;;4916332;29;20032;-57
2020/12/25 09:25:59;;;;;;;1.23;0.43;;;14.60;62.10;;;;;;4899297;29;20024;-54
2020/12/25 09:28:26;;;;;;;3.58;0.80;;;14.60;61.80;;;;;;4916248;29;20063;-50
2020/12/25 09:30:52;;;;;;;5.45;1.10;;;14.50;61.70;;;;;;4915901;29;20016;-55
2020/12/25 09:33:18;;;;;;;1.63;0.50;;;14.60;61.80;;;;;;4916268;29;20032;-55
2020/12/25 09:35:44;;;;;;;3.22;0.70;;;14.50;61.50;;;;;;4916158;29;20063;-53
2020/12/25 09:38:10;;;;;;;3.33;0.93;;;14.50;61.20;;;;;;4916213;29;20059;-54
2020/12/25 09:40:35;;;;;;;3.30;0.90;;;14.50;60.90;;;;;;4914664;29;20594;-53
2020/12/25 09:43:01;;;;;;;2.28;0.82;;;14.50;60.70;;;;;;4916131;29;20115;-53
2020/12/25 09:45:26;;;;;;;4.43;1.00;;;14.40;60.40;;;;;;4916084;29;20115;-54
2020/12/25 09:47:52;;;;;;;3.38;0.80;;;14.40;60.30;;;;;;4899085;29;20099;-55
2020/12/25 09:50:18;;;;;;;4.95;0.98;;;14.40;60.00;;;;;;4915930;29;20028;-53
2020/12/25 09:52:43;;;;;;;4.63;0.82;;;14.40;60.10;;;;;;4919656;29;20455;-54
2020/12/25 09:55:09;;;;;;;4.38;0.90;;;14.40;60.00;;;;;;4919659;29;20391;-52
2020/12/25 09:57:34;;;;;;;3.03;0.80;;;14.40;60.20;;;;;;4919610;29;20139;-53
2020/12/25 10:00:10;;;;;;;6.45;1.60;;;14.40;60.20;;;;;;4919402;29;20047;-50
2020/12/25 10:02:37;;;;;;;7.80;0.80;;;14.40;60.20;;;;;;4919426;29;20031;-51
2020/12/25 10:05:04;;;;;;;4.60;0.93;;;14.40;60.30;;;;;;4919408;29;20411;-52
2020/12/25 10:07:29;;;;;;;3.50;0.80;;;14.40;60.40;;;;;;4919313;29;20028;-50
2020/12/25 10:09:55;;;;;;;3.72;0.80;;;14.40;60.50;;;;;;4919177;29;20028;-50
2020/12/25 10:12:21;;;;;;;2.85;0.73;;;14.50;61.20;;;;;;4919329;29;20463;-51
2020/12/25 10:14:46;;;;;;;5.25;1.20;;;14.70;61.20;;;;;;4919245;29;20788;-51
2020/12/25 10:17:12;;;;;;;4.38;0.95;;;14.50;60.90;;;;;;4919173;29;20039;-54
2020/12/25 10:19:44;;;;;;;2.30;0.90;;;14.60;60.80;;;;;;4924123;28;20052;-53
2020/12/25 10:22:10;;;;;;;4.30;1.13;;;14.60;60.60;;;;;;4919077;29;20475;-52
2020/12/25 10:24:35;;;;;;;1.52;0.50;;;14.70;60.50;;;;;;4918785;29;20108;-50
2020/12/25 10:27:01;;;;;;;2.75;0.60;;;14.90;60.00;;;;;;4919203;29;20025;-49
2020/12/25 10:29:28;;;;;;;3.72;0.88;;;15.00;59.60;;;;;;4918932;29;20027;-49
2020/12/25 10:31:54;;;;;;;2.88;1.00;;;15.10;59.80;;;;;;4919167;29;20028;-53
2020/12/25 10:34:20;;;;;;;3.60;0.93;;;15.10;59.70;;;;;;4901382;29;20661;-48
2020/12/25 10:36:45;;;;;;;4.20;0.80;;;15.10;59.60;;;;;;4918577;29;20498;-47
2020/12/25 10:39:18;;;;;;;2.85;0.73;;;15.20;60.60;;;;;;4918620;29;20032;-45
2020/12/25 10:41:51;;;;;;;2.80;0.73;;;15.20;60.80;;;;;;4918642;29;20043;-45
2020/12/25 10:44:17;;;;;;;3.55;0.77;;;15.30;60.40;;;;;;4918404;29;20479;-47
2020/12/25 10:46:42;;;;;;;4.18;0.98;;;15.20;60.10;;;;;;4918665;29;20038;-46
2020/12/25 10:49:08;;;;;;;6.25;1.10;;;15.20;60.40;;;;;;4918667;29;20028;-51
2020/12/25 10:51:34;;;;;;;3.20;0.98;;;15.10;60.50;;;;;;4918656;29;20387;-48
2020/12/25 10:53:59;;;;;;;3.00;1.00;;;15.10;60.40;;;;;;4918444;29;20040;-45
2020/12/25 10:56:26;;;;;;;5.15;1.05;;;15.00;60.60;;;;;;4918429;29;20386;-47
2020/12/25 10:58:53;;;;;;;4.80;1.23;;;15.00;60.60;;;;;;4918430;29;20024;-47
2020/12/25 11:01:27;;;;;;;3.40;0.80;;;15.00;60.70;;;;;;4918107;29;20084;-48
2020/12/25 11:03:54;;;;;;;3.55;1.27;;;14.90;60.70;;;;;;4918214;29;20091;-46
2020/12/25 11:06:29;;;;;;;2.83;0.93;;;14.90;60.70;;;;;;4918080;29;20391;-48
2020/12/25 11:08:55;;;;;;;5.82;0.88;;;14.90;60.90;;;;;;4918181;29;20423;-47
2020/12/25 11:11:25;;;;;;;4.53;1.10;;;14.90;60.90;;;;;;4918174;29;20112;-47
2020/12/25 11:13:50;;;;;;;3.90;1.00;;;14.80;60.90;;;;;;4917368;29;20228;-48
2020/12/25 11:16:23;;;;;;;3.83;1.00;;;14.80;61.00;;;;;;4917676;29;20039;-46
2020/12/25 11:18:49;;;;;;;5.22;0.90;;;14.80;60.80;;;;;;4917997;29;20032;-50
2020/12/25 11:21:22;;;;;;;3.80;1.00;;;14.60;61.00;;;;;;4919689;28;20067;-48
2020/12/25 11:23:52;;;;;;;5.82;1.15;;;14.70;61.00;;;;;;4918113;29;20024;-48
2020/12/25 11:26:19;;;;;;;2.67;1.08;;;14.70;61.20;;;;;;4918206;29;20028;-46
2020/12/25 11:28:45;;;;;;;2.80;0.85;;;14.70;61.20;;;;;;4917882;29;20021;-49
2020/12/25 11:31:11;;;;;;;3.50;0.80;;;14.70;61.30;;;;;;4917841;29;20034;-49
2020/12/25 11:33:37;;;;;;;2.03;0.82;;;14.60;61.20;;;;;;4917894;29;20076;-49
2020/12/25 11:36:03;;;;;;;2.80;1.00;;;14.60;61.50;;;;;;4917714;29;20434;-48
2020/12/25 11:38:28;;;;;;;3.50;0.90;;;14.70;61.60;;;;;;4917908;29;20024;-47
2020/12/25 11:40:54;;;;;;;2.92;0.82;;;14.60;61.40;;;;;;4917616;29;20043;-47
2020/12/25 11:43:19;;;;;;;4.70;0.90;;;14.60;61.40;;;;;;4917460;29;20043;-48
2020/12/25 11:45:45;;;;;;;4.40;0.95;;;14.60;61.60;;;;;;4900547;29;20028;-48
2020/12/25 11:48:10;;;;;;;1.80;0.60;;;14.60;61.70;;;;;;4917542;29;20494;-48
2020/12/25 11:50:36;;;;;;;2.72;0.90;;;14.60;61.70;;;;;;4917558;29;20032;-49
2020/12/25 11:53:02;;;;;;;4.40;1.10;;;14.50;61.60;;;;;;4917734;29;20017;-48
2020/12/25 11:55:27;;;;;;;2.58;0.80;;;14.60;61.80;;;;;;4917452;29;20039;-48
2020/12/25 11:57:53;;;;;;;2.22;0.90;;;14.50;61.70;;;;;;4917408;29;20032;-49
2020/12/25 12:00:18;;;;;;;3.00;0.70;;;14.50;61.80;;;;;;4917186;29;20087;-48
2020/12/25 12:02:44;;;;;;;1.40;0.77;;;14.50;61.80;;;;;;4917308;29;20048;-49
2020/12/25 12:05:09;;;;;;;2.92;0.82;;;14.50;61.90;;;;;;4917296;29;20071;-49
2020/12/25 12:07:35;;;;;;;1.25;0.73;;;14.50;62.00;;;;;;4916924;29;20030;-47
2020/12/25 12:10:00;;;;;;;2.97;1.00;;;14.50;62.20;;;;;;4917168;29;20043;-48
2020/12/25 12:12:26;;;;;;;3.35;0.63;;;14.50;62.20;;;;;;4917225;29;20024;-50
2020/12/25 12:14:52;;;;;;;2.00;0.60;;;14.50;62.20;;;;;;4916487;29;20498;-47
2020/12/25 12:17:17;;;;;;;3.78;1.10;;;14.50;62.20;;;;;;4916951;29;20091;-49
2020/12/25 12:19:43;;;;;;;3.30;0.95;;;14.50;62.20;;;;;;4918497;28;20123;-47
2020/12/25 12:22:08;;;;;;;2.30;0.68;;;14.50;62.30;;;;;;4916894;29;20028;-48
2020/12/25 12:24:34;;;;;;;4.32;0.85;;;14.50;62.30;;;;;;4916853;29;20356;-46
2020/12/25 12:26:59;;;;;;;4.97;0.77;;;14.50;62.30;;;;;;4899550;29;20551;-47
2020/12/25 12:29:25;;;;;;;2.55;0.80;;;14.40;62.40;;;;;;4899758;29;20087;-48
2020/12/25 12:31:51;;;;;;;4.35;1.10;;;14.40;62.40;;;;;;4916860;29;20119;-47
2020/12/25 12:34:16;;;;;;;1.73;0.93;;;14.40;62.40;;;;;;4916710;29;20028;-47
2020/12/25 12:36:45;;;;;;;1.92;0.55;;;14.40;62.60;;;;;;4916868;29;20024;-44
2020/12/25 12:39:11;;;;;;;5.43;0.85;;;14.50;62.90;;;;;;4916433;29;20036;-47
2020/12/25 12:41:36;;;;;;;3.15;1.35;;;14.50;62.60;;;;;;4916825;29;20043;-48
2020/12/25 12:44:02;;;;;;;3.72;0.80;;;14.50;62.40;;;;;;4915910;29;20025;-47
2020/12/25 12:46:27;;;;;;;2.20;0.77;;;14.50;62.30;;;;;;4915067;29;20119;-49
2020/12/25 12:48:53;;;;;;;2.80;0.90;;;14.50;62.60;;;;;;4916206;29;20016;-50